Time;durP1;ratioP1;P1;durP2;ratioP2;P2;SDS_P1;SDS_P2;PMS_P1;PMS_P2;Temp;Humidity;BMP_temperature;BMP_pressure;BME280_temperature;BME280_humidity;BME280_pressure;Samples;Min_cycle;Max_cycle;Signal;HPM_P1;HPM_P2
2023/06/13 00:00:51;;;;;;;0.00;0.00;;;;;;;16.66;63.40;100491.31;5055960;28;20179;-76
2023/06/13 00:03:19;;;;;;;4.03;3.63;;;;;;;16.58;63.21;100492.25;5051505;28;20203;-75
2023/06/13 00:05:46;;;;;;;0.30;0.30;;;;;;;16.46;63.12;100489.53;5050643;28;20319;-75
2023/06/13 00:08:21;;;;;;;0.00;0.00;;;;;;;16.24;62.90;100484.56;5050479;28;20199;-76
2023/06/13 00:10:50;;;;;;;0.30;0.30;;;;;;;16.27;63.19;100497.66;5050093;28;20583;-76
2023/06/13 00:13:16;;;;;;;0.00;0.00;;;;;;;16.26;63.07;100485.03;5050373;28;20199;-76
2023/06/13 00:15:56;;;;;;;0.00;0.00;;;;;;;16.34;62.81;100490.38;5051078;28;20522;-76
2023/06/13 00:18:23;;;;;;;0.00;0.00;;;;;;;16.21;62.60;100485.28;5050256;28;20194;-76
2023/06/13 00:20:50;;;;;;;0.00;0.00;;;;;;;16.13;62.66;100492.50;5051157;28;20179;-76
2023/06/13 00:23:16;;;;;;;0.00;0.00;;;;;;;16.00;62.61;100482.66;5050344;28;20195;-74
2023/06/13 00:25:41;;;;;;;0.00;0.00;;;;;;;16.05;62.61;100483.22;5049122;28;20175;-75
2023/06/13 00:28:07;;;;;;;0.10;0.10;;;;;;;16.08;62.85;100484.50;5050851;28;20175;-76
2023/06/13 00:30:33;;;;;;;0.00;0.00;;;;;;;15.99;63.15;100475.53;5052459;28;20185;-76
2023/06/13 00:32:59;;;;;;;0.00;0.00;;;;;;;15.92;63.17;100489.91;5050735;28;20298;-76
2023/06/13 00:35:25;;;;;;;0.00;0.00;;;;;;;16.00;63.91;100485.41;5052786;28;20167;-76
2023/06/13 00:37:54;;;;;;;0.00;0.00;;;;;;;15.93;64.00;100471.44;5053546;28;20240;-77
2023/06/13 00:40:20;;;;;;;0.00;0.00;;;;;;;15.95;64.06;100477.38;5054019;28;20179;-76
2023/06/13 00:42:45;;;;;;;0.77;0.77;;;;;;;15.97;63.76;100472.34;5053047;28;20569;-76
2023/06/13 00:45:29;;;;;;;0.10;0.10;;;;;;;15.92;63.90;100472.56;5051379;28;20183;-76
2023/06/13 00:47:57;;;;;;;0.00;0.00;;;;;;;15.89;63.38;100476.81;5051868;28;20274;-75
2023/06/13 00:50:28;;;;;;;0.00;0.00;;;;;;;15.88;63.75;100474.41;5051407;28;20606;-75
2023/06/13 00:52:59;;;;;;;0.00;0.00;;;;;;;15.93;63.48;100472.22;5051700;28;20612;-76
2023/06/13 00:55:26;;;;;;;0.00;0.00;;;;;;;16.03;63.16;100473.69;5051917;28;20205;-76
2023/06/13 00:58:06;;;;;;;0.13;0.13;;;;;;;15.83;63.43;100478.19;5051585;28;20191;-76
2023/06/13 01:00:32;;;;;;;0.00;0.00;;;;;;;15.82;63.37;100471.09;5051166;28;20641;-76
2023/06/13 01:02:58;;;;;;;0.00;0.00;;;;;;;15.78;63.38;100481.19;5051357;28;20335;-75
2023/06/13 01:05:26;;;;;;;0.30;0.30;;;;;;;15.75;64.04;100474.41;5051376;28;20201;-76
2023/06/13 01:07:53;;;;;;;0.27;0.27;;;;;;;15.81;63.95;100477.75;5051592;28;20186;-76
2023/06/13 01:10:19;;;;;;;0.00;0.00;;;;;;;15.69;63.48;100467.53;5050756;28;20181;-76
2023/06/13 01:13:00;;;;;;;0.00;0.00;;;;;;;15.74;63.28;100470.03;5050550;28;20199;-76
2023/06/13 01:15:29;;;;;;;0.00;0.00;;;;;;;15.66;63.54;100475.69;5050803;28;20178;-76
2023/06/13 01:18:00;;;;;;;0.00;0.00;;;;;;;15.65;63.98;100468.56;5050725;28;20198;-76
2023/06/13 01:20:28;;;;;;;0.00;0.00;;;;;;;15.56;63.85;100462.34;5050696;28;20736;-75
2023/06/13 01:23:15;;;;;;;0.00;0.00;;;;;;;15.43;64.02;100469.78;5053452;28;20373;-76
2023/06/13 01:26:05;;;;;;;0.00;0.00;;;;;;;15.39;63.94;100472.44;5053259;28;20183;-76
2023/06/13 01:28:34;;;;;;;0.00;0.00;;;;;;;15.50;63.76;100470.03;5054114;28;20185;-76
2023/06/13 01:31:01;;;;;;;0.00;0.00;;;;;;;15.32;64.74;100466.69;5053829;28;20209;-75
2023/06/13 01:33:28;;;;;;;0.00;0.00;;;;;;;15.40;64.45;100473.22;5054101;28;20191;-76
2023/06/13 01:35:53;;;;;;;0.10;0.10;;;;;;;15.37;64.45;100471.19;5054294;28;20175;-76
2023/06/13 01:38:19;;;;;;;0.40;0.40;;;;;;;15.32;64.70;100469.44;5053604;28;20751;-76
2023/06/13 01:40:44;;;;;;;0.17;0.17;;;;;;;15.29;64.96;100470.13;5053788;28;20215;-76
2023/06/13 01:43:10;;;;;;;0.00;0.00;;;;;;;15.33;65.06;100473.78;5053791;28;20727;-76
2023/06/13 01:45:35;;;;;;;0.00;0.00;;;;;;;15.38;65.22;100470.03;5053839;28;20691;-76
2023/06/13 01:48:20;;;;;;;0.00;0.00;;;;;;;15.40;65.34;100470.47;5053582;28;20668;-76
2023/06/13 01:51:16;;;;;;;0.00;0.00;;;;;;;15.36;65.48;100473.13;5053484;28;20193;-76
2023/06/13 01:53:51;;;;;;;0.00;0.00;;;;;;;15.44;65.19;100468.63;5053600;28;20699;-75
2023/06/13 01:56:22;;;;;;;0.00;0.00;;;;;;;15.42;65.53;100474.50;5052490;28;20637;-77
2023/06/13 01:59:00;;;;;;;0.00;0.00;;;;;;;15.38;65.75;100472.78;5053018;28;20209;-77
2023/06/13 02:01:26;;;;;;;0.00;0.00;;;;;;;15.35;66.13;100474.28;5053201;28;20265;-74
2023/06/13 02:03:52;;;;;;;0.00;0.00;;;;;;;15.37;65.96;100469.22;5052064;28;20203;-76
2023/06/13 02:06:18;;;;;;;0.00;0.00;;;;;;;15.34;65.59;100466.34;5053558;28;20185;-76
2023/06/13 02:08:44;;;;;;;0.10;0.10;;;;;;;15.15;66.09;100475.13;5053264;28;20262;-77
2023/06/13 02:11:09;;;;;;;0.00;0.00;;;;;;;14.97;67.04;100471.78;5051880;28;20179;-77
2023/06/13 02:13:35;;;;;;;0.00;0.00;;;;;;;15.06;67.01;100479.97;5053193;28;20218;-77
2023/06/13 02:16:00;;;;;;;0.20;0.20;;;;;;;15.14;67.12;100476.28;5053338;28;20183;-75
2023/06/13 02:18:27;;;;;;;0.40;0.40;;;;;;;15.13;67.13;100477.44;5052443;28;20201;-77
2023/06/13 02:20:53;;;;;;;0.00;0.00;;;;;;;15.08;67.22;100463.91;5052883;28;20262;-77
2023/06/13 02:23:18;;;;;;;0.00;0.00;;;;;;;15.02;67.31;100470.75;5052919;28;20195;-76
2023/06/13 02:25:46;;;;;;;0.00;0.00;;;;;;;14.84;67.58;100465.44;5053067;28;20205;-77
2023/06/13 02:28:11;;;;;;;0.00;0.00;;;;;;;14.81;68.04;100466.13;5051410;28;20179;-77
2023/06/13 02:30:37;;;;;;;0.00;0.00;;;;;;;14.83;68.22;100461.09;5052581;28;20253;-77
2023/06/13 02:33:03;;;;;;;0.00;0.00;;;;;;;14.82;68.27;100464.19;5052448;28;20611;-77
2023/06/13 02:35:28;;;;;;;0.00;0.00;;;;;;;14.84;68.33;100468.19;5051972;28;20179;-77
2023/06/13 02:37:54;;;;;;;0.00;0.00;;;;;;;14.87;68.46;100461.19;5051450;28;20186;-77
2023/06/13 02:40:20;;;;;;;0.00;0.00;;;;;;;14.91;67.98;100464.91;5052233;28;20662;-76
2023/06/13 02:42:47;;;;;;;0.00;0.00;;;;;;;14.92;67.78;100463.75;5052751;28;20280;-77
2023/06/13 02:45:13;;;;;;;0.00;0.00;;;;;;;14.88;67.65;100469.13;5052703;28;20937;-77
2023/06/13 02:47:38;;;;;;;0.00;0.00;;;;;;;14.85;67.76;100467.03;5052272;28;20285;-77
2023/06/13 02:50:04;;;;;;;0.00;0.00;;;;;;;14.78;68.06;100466.00;5052462;28;20179;-77
2023/06/13 02:52:29;;;;;;;0.00;0.00;;;;;;;14.74;68.23;100468.59;5052840;28;20276;-75
2023/06/13 02:54:55;;;;;;;0.00;0.00;;;;;;;14.72;68.42;100462.66;5053235;28;20205;-77
2023/06/13 02:57:20;;;;;;;0.00;0.00;;;;;;;14.71;68.32;100463.00;5052589;28;20302;-77
2023/06/13 02:59:47;;;;;;;0.00;0.00;;;;;;;14.64;68.31;100460.81;5052199;28;20627;-77
2023/06/13 03:02:13;;;;;;;0.00;0.00;;;;;;;14.43;68.47;100455.28;5051988;28;20601;-76
2023/06/13 03:04:38;;;;;;;0.00;0.00;;;;;;;14.26;69.01;100469.19;5051934;28;20179;-76
2023/06/13 03:07:05;;;;;;;0.00;0.00;;;;;;;14.15;69.77;100471.50;5051854;28;20213;-77
2023/06/13 03:09:33;;;;;;;0.00;0.00;;;;;;;14.06;69.86;100470.78;5051275;28;20241;-77
2023/06/13 03:11:59;;;;;;;0.00;0.00;;;;;;;14.00;70.60;100463.88;5051693;28;20175;-77
2023/06/13 03:14:25;;;;;;;0.00;0.00;;;;;;;13.87;71.16;100464.91;5051518;28;20201;-76
2023/06/13 03:16:52;;;;;;;0.00;0.00;;;;;;;13.79;71.63;100474.03;5051285;28;20286;-76
2023/06/13 03:19:18;;;;;;;0.00;0.00;;;;;;;13.64;72.12;100465.22;5050978;28;20726;-76
2023/06/13 03:21:43;;;;;;;0.00;0.00;;;;;;;13.54;72.28;100471.09;5051392;28;20183;-75
2023/06/13 03:24:08;;;;;;;0.00;0.00;;;;;;;13.45;72.88;100464.03;5051287;28;20250;-76
2023/06/13 03:26:38;;;;;;;0.00;0.00;;;;;;;13.40;73.63;100465.00;5051320;28;20653;-75
2023/06/13 03:29:03;;;;;;;0.00;0.00;;;;;;;13.34;74.07;100458.13;5050611;28;20167;-74
2023/06/13 03:31:29;;;;;;;0.00;0.00;;;;;;;13.36;74.37;100464.06;5051262;28;20653;-76
2023/06/13 03:33:54;;;;;;;0.00;0.00;;;;;;;13.36;74.45;100470.38;5051556;28;20340;-76
2023/06/13 03:36:19;;;;;;;0.00;0.00;;;;;;;13.34;74.74;100461.66;5051394;28;20186;-75
2023/06/13 03:38:45;;;;;;;0.00;0.00;;;;;;;13.38;74.45;100470.84;5049861;28;20670;-76
2023/06/13 03:41:10;;;;;;;0.00;0.00;;;;;;;13.36;74.76;100472.31;5050754;28;20194;-76
2023/06/13 03:43:35;;;;;;;0.00;0.00;;;;;;;13.35;74.92;100477.00;5050842;28;20202;-76
2023/06/13 03:46:00;;;;;;;0.00;0.00;;;;;;;13.35;75.32;100471.50;5050438;28;20175;-76
2023/06/13 03:48:26;;;;;;;0.00;0.00;;;;;;;13.32;75.44;100474.09;5050728;28;20254;-74
2023/06/13 03:50:51;;;;;;;0.00;0.00;;;;;;;13.29;75.77;100470.06;5050823;28;20210;-76
2023/06/13 03:53:16;;;;;;;0.00;0.00;;;;;;;13.28;75.79;100470.38;5045037;28;20570;-76
2023/06/13 03:55:45;;;;;;;0.00;0.00;;;;;;;13.23;76.28;100476.88;5051082;28;20200;-76
2023/06/13 03:58:11;;;;;;;0.00;0.00;;;;;;;13.32;76.60;100477.66;5050401;28;20601;-76
2023/06/13 04:00:39;;;;;;;0.57;0.57;;;;;;;13.33;76.51;100483.94;5050569;28;20213;-75
2023/06/13 04:03:05;;;;;;;0.00;0.00;;;;;;;13.40;76.64;100486.97;5050539;28;20201;-76
2023/06/13 04:05:31;;;;;;;0.00;0.00;;;;;;;13.45;76.61;100480.47;5050757;28;20183;-76
2023/06/13 04:07:56;;;;;;;0.00;0.00;;;;;;;13.42;76.39;100479.22;5050830;28;20603;-76
2023/06/13 04:10:22;;;;;;;0.00;0.00;;;;;;;13.44;75.70;100479.69;5050463;28;20275;-76
2023/06/13 04:12:47;;;;;;;0.00;0.00;;;;;;;13.57;75.79;100484.16;5050334;28;20272;-76
2023/06/13 04:15:13;;;;;;;0.00;0.00;;;;;;;13.59;74.81;100473.63;5050825;28;20182;-76
2023/06/13 04:17:40;;;;;;;0.00;0.00;;;;;;;13.75;74.48;100476.66;5050727;28;20186;-76
2023/06/13 04:20:05;;;;;;;0.00;0.00;;;;;;;13.87;73.29;100475.91;5050638;28;20638;-75
2023/06/13 04:22:31;;;;;;;0.00;0.00;;;;;;;13.67;72.34;100475.53;5049451;28;20294;-76
2023/06/13 04:24:57;;;;;;;0.00;0.00;;;;;;;13.64;73.24;100484.44;5051149;28;20183;-76
2023/06/13 04:27:28;;;;;;;0.00;0.00;;;;;;;13.82;72.87;100482.41;5050690;28;20657;-76
2023/06/13 04:29:54;;;;;;;0.00;0.00;;;;;;;13.94;72.29;100484.44;5050894;28;20182;-76
2023/06/13 04:32:23;;;;;;;0.30;0.30;;;;;;;14.14;71.93;100485.59;5050780;28;20179;-75
2023/06/13 04:34:52;;;;;;;0.00;0.00;;;;;;;14.03;70.51;100484.38;5050841;28;20182;-75
2023/06/13 04:37:23;;;;;;;0.00;0.00;;;;;;;14.20;70.16;100489.75;5050765;28;20182;-76
2023/06/13 04:39:50;;;;;;;0.00;0.00;;;;;;;14.24;69.43;100480.50;5050233;28;20188;-76
2023/06/13 04:42:21;;;;;;;0.00;0.00;;;;;;;14.23;69.15;100478.91;5050221;28;20549;-76
2023/06/13 04:44:48;;;;;;;0.00;0.00;;;;;;;14.41;68.93;100482.31;5050608;28;20191;-76
2023/06/13 04:47:13;;;;;;;0.00;0.00;;;;;;;14.56;68.20;100483.66;5052059;28;20179;-77
2023/06/13 04:49:40;;;;;;;0.20;0.20;;;;;;;14.60;67.61;100476.34;5053712;28;20175;-76
2023/06/13 04:52:06;;;;;;;0.00;0.00;;;;;;;14.47;68.12;100472.75;5054615;28;20182;-76
2023/06/13 04:54:31;;;;;;;0.27;0.20;;;;;;;14.38;67.84;100469.25;5052469;28;20175;-77
2023/06/13 04:56:57;;;;;;;0.00;0.00;;;;;;;14.36;67.43;100466.03;5054586;28;20191;-75
2023/06/13 04:59:22;;;;;;;0.00;0.00;;;;;;;14.34;68.19;100468.31;5053828;28;20204;-82
2023/06/13 05:01:48;;;;;;;0.00;0.00;;;;;;;14.38;67.80;100469.25;5043424;28;20174;-77
2023/06/13 05:04:14;;;;;;;0.40;0.40;;;;;;;14.49;67.76;100469.69;5054374;28;20199;-76
2023/06/13 05:06:40;;;;;;;0.00;0.00;;;;;;;14.59;66.85;100466.50;5048838;28;20186;-77
2023/06/13 05:09:08;;;;;;;0.00;0.00;;;;;;;14.54;66.75;100463.97;5055393;28;20541;-75
2023/06/13 05:11:34;;;;;;;0.00;0.00;;;;;;;14.52;66.34;100467.06;5055608;28;20239;-76
2023/06/13 05:13:59;;;;;;;0.20;0.20;;;;;;;14.61;65.52;100477.16;5055607;28;20203;-75
2023/06/13 05:16:29;;;;;;;0.00;0.00;;;;;;;14.71;65.95;100472.03;5054683;28;20561;-77
2023/06/13 05:18:57;;;;;;;0.00;0.00;;;;;;;14.75;66.58;100474.91;5055133;28;20274;-77
2023/06/13 05:21:22;;;;;;;0.10;0.10;;;;;;;14.84;66.15;100468.19;5054116;28;20565;-77
2023/06/13 05:23:48;;;;;;;0.20;0.20;;;;;;;14.82;65.88;100473.22;5054064;28;20260;-77
2023/06/13 05:26:13;;;;;;;0.00;0.00;;;;;;;14.77;65.51;100476.22;5054271;28;20224;-77
2023/06/13 05:28:40;;;;;;;0.00;0.00;;;;;;;14.93;65.12;100472.81;5048913;28;20172;-77
2023/06/13 05:31:06;;;;;;;0.00;0.00;;;;;;;15.01;65.07;100474.66;5051385;28;20183;-77
2023/06/13 05:33:32;;;;;;;0.00;0.00;;;;;;;15.14;64.95;100470.78;5053393;28;20207;-77
2023/06/13 05:35:58;;;;;;;0.00;0.00;;;;;;;15.14;64.23;100468.84;5054769;28;20320;-77
2023/06/13 05:38:23;;;;;;;0.00;0.00;;;;;;;15.17;64.06;100472.84;5055990;28;20219;-76
2023/06/13 05:40:48;;;;;;;0.00;0.00;;;;;;;15.32;64.54;100474.94;5055793;28;20645;-77
2023/06/13 05:43:19;;;;;;;0.30;0.20;;;;;;;15.25;64.81;100469.22;5056832;28;20450;-77
2023/06/13 05:45:44;;;;;;;0.23;0.10;;;;;;;15.38;64.67;100462.56;5056414;28;20544;-77
2023/06/13 05:48:10;;;;;;;0.00;0.00;;;;;;;15.43;64.66;100470.59;5056231;28;20232;-77
2023/06/13 05:50:35;;;;;;;0.00;0.00;;;;;;;15.52;65.20;100473.25;5056526;28;20197;-76
2023/06/13 05:53:00;;;;;;;0.00;0.00;;;;;;;15.62;63.19;100472.81;5056611;28;20207;-75
2023/06/13 05:55:26;;;;;;;0.53;0.53;;;;;;;15.79;62.80;100460.75;5056548;28;20175;-77
2023/06/13 05:57:51;;;;;;;0.00;0.00;;;;;;;15.86;62.33;100460.97;5057023;28;20241;-77
2023/06/13 06:00:17;;;;;;;0.00;0.00;;;;;;;16.03;63.35;100463.47;5055408;28;20634;-77
2023/06/13 06:02:46;;;;;;;0.00;0.00;;;;;;;16.10;61.92;100462.91;5055632;28;20248;-77
2023/06/13 06:05:13;;;;;;;0.10;0.10;;;;;;;16.12;61.92;100459.78;5053237;28;20183;-75
2023/06/13 06:07:40;;;;;;;0.00;0.00;;;;;;;15.98;62.64;100460.97;5048496;28;20179;-77
2023/06/13 06:10:07;;;;;;;0.00;0.00;;;;;;;16.11;62.91;100469.22;5055713;28;20548;-77
2023/06/13 06:12:32;;;;;;;0.30;0.30;;;;;;;16.15;62.67;100461.84;5055838;28;20262;-76
2023/06/13 06:14:58;;;;;;;0.07;0.07;;;;;;;16.21;62.78;100461.25;5055025;28;20226;-77
2023/06/13 06:17:23;;;;;;;0.00;0.00;;;;;;;16.27;62.48;100467.31;5053957;28;20187;-77
2023/06/13 06:19:49;;;;;;;0.00;0.00;;;;;;;16.32;63.06;100464.31;5050910;28;20199;-76
2023/06/13 06:22:14;;;;;;;0.00;0.00;;;;;;;16.31;62.71;100465.47;5052269;28;20633;-77
2023/06/13 06:24:41;;;;;;;0.10;0.10;;;;;;;16.41;63.42;100476.00;5052750;28;20262;-77
2023/06/13 06:27:06;;;;;;;0.00;0.00;;;;;;;16.53;63.27;100472.41;5052306;28;20175;-77
2023/06/13 06:29:32;;;;;;;0.53;0.53;;;;;;;16.64;62.84;100474.31;5050557;28;20190;-76
2023/06/13 06:31:57;;;;;;;2.30;0.83;;;;;;;16.74;62.80;100470.28;5052155;28;20606;-75
2023/06/13 06:34:22;;;;;;;0.00;0.00;;;;;;;16.79;62.38;100470.03;5052101;28;20297;-77
2023/06/13 06:36:48;;;;;;;1.13;1.13;;;;;;;16.84;62.42;100467.00;5052359;28;20186;-76
2023/06/13 06:39:15;;;;;;;0.00;0.00;;;;;;;16.94;62.87;100466.50;5051724;28;20576;-75
2023/06/13 06:41:40;;;;;;;0.37;0.37;;;;;;;17.00;61.94;100464.28;5050870;28;20211;-76
2023/06/13 06:44:05;;;;;;;0.10;0.10;;;;;;;17.00;62.60;100474.50;5052108;28;20597;-75
2023/06/13 06:46:31;;;;;;;0.00;0.00;;;;;;;17.12;62.66;100475.25;5052225;28;20190;-76
2023/06/13 06:48:56;;;;;;;0.00;0.00;;;;;;;17.25;62.38;100478.75;5051511;28;20228;-76
2023/06/13 06:51:21;;;;;;;0.00;0.00;;;;;;;17.35;62.14;100471.84;5051939;28;20649;-76
2023/06/13 06:53:47;;;;;;;0.07;0.07;;;;;;;17.49;61.22;100472.22;5052004;28;20625;-76
2023/06/13 06:56:12;;;;;;;0.37;0.37;;;;;;;17.22;60.45;100466.44;5051784;28;20186;-75
2023/06/13 06:58:37;;;;;;;0.93;0.27;;;;;;;17.33;61.13;100465.91;5051332;28;20759;-76
2023/06/13 07:01:02;;;;;;;0.00;0.00;;;;;;;17.46;60.69;100461.88;5047961;28;20222;-76
2023/06/13 07:03:28;;;;;;;0.00;0.00;;;;;;;17.66;60.29;100460.00;5051731;28;20697;-75
2023/06/13 07:05:53;;;;;;;0.00;0.00;;;;;;;17.72;60.14;100455.84;5051816;28;20254;-76
2023/06/13 07:08:18;;;;;;;0.67;0.27;;;;;;;17.73;60.93;100461.00;5051510;28;20178;-76
2023/06/13 07:10:43;;;;;;;0.37;0.37;;;;;;;17.79;60.56;100462.34;5051250;28;20187;-76
2023/06/13 07:13:09;;;;;;;0.00;0.00;;;;;;;18.01;60.45;100471.09;5051806;28;20214;-76
2023/06/13 07:15:34;;;;;;;0.33;0.33;;;;;;;18.09;59.64;100459.84;5051932;28;20233;-76
2023/06/13 07:18:00;;;;;;;0.00;0.00;;;;;;;18.17;60.02;100466.34;5051579;28;20178;-76
2023/06/13 07:20:26;;;;;;;0.00;0.00;;;;;;;18.29;59.71;100463.44;5048972;28;20561;-76
2023/06/13 07:22:51;;;;;;;1.53;1.47;;;;;;;18.34;59.90;100467.88;5052463;28;20206;-76
2023/06/13 07:25:17;;;;;;;0.40;0.40;;;;;;;18.34;60.10;100471.44;5044944;28;20728;-76
2023/06/13 07:27:42;;;;;;;0.00;0.00;;;;;;;18.31;60.23;100469.41;5051445;28;20194;-76
2023/06/13 07:30:08;;;;;;;0.30;0.30;;;;;;;18.39;59.71;100468.41;5051735;28;20649;-75
2023/06/13 07:32:34;;;;;;;0.00;0.00;;;;;;;18.40;59.88;100464.47;5052951;28;20286;-82
2023/06/13 07:34:59;;;;;;;0.00;0.00;;;;;;;18.58;60.05;100477.84;5044043;28;20229;-81
2023/06/13 07:37:24;;;;;;;0.97;0.93;;;;;;;18.48;59.63;100473.69;5050431;28;20276;-75
2023/06/13 07:39:50;;;;;;;0.10;0.10;;;;;;;18.56;59.06;100471.88;5045627;28;20208;-77
2023/06/13 07:42:15;;;;;;;0.00;0.00;;;;;;;18.63;59.87;100474.78;5049594;28;20178;-76
2023/06/13 07:44:41;;;;;;;0.83;0.83;;;;;;;18.80;60.17;100477.13;5051054;28;20269;-76
2023/06/13 07:47:06;;;;;;;0.47;0.47;;;;;;;18.75;58.42;100460.03;5051081;28;20186;-76
2023/06/13 07:49:32;;;;;;;0.00;0.00;;;;;;;18.98;60.11;100474.72;5050346;28;20690;-76
2023/06/13 07:51:57;;;;;;;0.23;0.23;;;;;;;19.26;58.45;100471.66;5050588;28;20187;-76
2023/06/13 07:54:22;;;;;;;0.40;0.40;;;;;;;19.28;57.36;100461.00;5047924;28;20746;-76
2023/06/13 07:56:49;;;;;;;1.17;1.07;;;;;;;19.18;57.45;100461.63;5050786;28;20650;-76
2023/06/13 07:59:14;;;;;;;0.00;0.00;;;;;;;19.22;57.83;100462.47;5050087;28;20829;-74
2023/06/13 08:01:40;;;;;;;0.00;0.00;;;;;;;19.41;59.07;100473.50;5050307;28;20196;-76
2023/06/13 08:04:05;;;;;;;0.13;0.13;;;;;;;19.64;57.84;100470.72;5051360;28;20210;-76
2023/06/13 08:06:31;;;;;;;0.10;0.10;;;;;;;19.45;57.00;100459.69;5057173;28;20262;-81
2023/06/13 08:08:56;;;;;;;1.97;1.53;;;;;;;19.53;57.53;100455.88;5051829;28;20252;-82
2023/06/13 08:11:21;;;;;;;0.83;0.50;;;;;;;19.53;56.92;100459.47;5051637;28;20191;-81
2023/06/13 08:13:47;;;;;;;0.10;0.10;;;;;;;19.43;55.88;100451.75;5054027;28;20290;-83
2023/06/13 08:16:12;;;;;;;0.10;0.10;;;;;;;19.68;57.51;100466.06;5051922;28;20179;-77
2023/06/13 08:18:38;;;;;;;0.00;0.00;;;;;;;19.91;57.10;100474.31;5050044;28;20698;-75
2023/06/13 08:21:03;;;;;;;0.67;0.67;;;;;;;19.94;56.29;100462.47;5048852;28;20190;-76
2023/06/13 08:23:29;;;;;;;0.00;0.00;;;;;;;20.00;56.32;100466.53;5051787;28;20197;-78
2023/06/13 08:25:54;;;;;;;0.00;0.00;;;;;;;20.04;56.98;100467.38;5051742;28;20546;-77
2023/06/13 08:28:20;;;;;;;1.27;0.27;;;;;;;19.98;56.99;100462.53;5053151;28;20178;-75
2023/06/13 08:30:46;;;;;;;3.07;0.70;;;;;;;19.85;57.25;100454.44;5053427;28;20189;-77
2023/06/13 08:33:13;;;;;;;0.00;0.00;;;;;;;19.79;57.41;100452.34;5055715;28;20204;-77
2023/06/13 08:35:38;;;;;;;0.33;0.33;;;;;;;20.04;57.77;100464.59;5055879;28;20179;-76
2023/06/13 08:38:03;;;;;;;0.97;0.93;;;;;;;19.97;57.26;100458.97;5055847;28;20241;-77
2023/06/13 08:40:29;;;;;;;0.00;0.00;;;;;;;19.90;57.13;100456.06;5055905;28;20188;-77
2023/06/13 08:42:55;;;;;;;0.00;0.00;;;;;;;20.02;57.81;100461.41;5056580;28;20639;-77
2023/06/13 08:45:21;;;;;;;0.33;0.33;;;;;;;20.28;56.83;100451.44;5056393;28;20189;-77
2023/06/13 08:47:47;;;;;;;2.73;1.40;;;;;;;20.27;55.06;100449.84;5057202;28;20210;-78
2023/06/13 08:50:18;;;;;;;1.60;1.07;;;;;;;20.26;55.88;100445.47;5056548;28;20172;-76
2023/06/13 08:52:47;;;;;;;0.23;0.23;;;;;;;20.60;56.05;100457.41;5056174;28;20203;-77
2023/06/13 08:55:14;;;;;;;0.30;0.10;;;;;;;20.71;56.24;100452.78;5040774;28;20179;-77
2023/06/13 08:57:41;;;;;;;0.00;0.00;;;;;;;20.66;55.93;100453.09;5054727;28;20208;-76
2023/06/13 09:00:12;;;;;;;0.00;0.00;;;;;;;20.94;56.43;100455.41;5054900;28;20212;-78
2023/06/13 09:02:40;;;;;;;4.93;1.73;;;;;;;21.09;54.16;100444.03;5055611;28;20257;-77
2023/06/13 09:05:06;;;;;;;0.70;0.70;;;;;;;21.02;52.79;100435.66;5054894;28;20187;-77
2023/06/13 09:07:32;;;;;;;0.80;0.53;;;;;;;21.07;54.05;100440.06;5055503;28;20193;-77
2023/06/13 09:09:58;;;;;;;0.30;0.30;;;;;;;20.91;53.06;100425.63;5055503;28;20179;-76
2023/06/13 09:12:25;;;;;;;1.23;1.23;;;;;;;21.20;52.49;100424.69;5056049;28;20739;-77
2023/06/13 09:14:52;;;;;;;1.13;0.67;;;;;;;21.24;52.61;100428.28;5054988;28;20184;-77
2023/06/13 09:17:18;;;;;;;0.67;0.67;;;;;;;21.43;52.97;100434.84;5043028;28;20181;-77
2023/06/13 09:19:43;;;;;;;1.00;1.00;;;;;;;21.42;51.55;100422.13;5048657;28;20208;-77
2023/06/13 09:22:08;;;;;;;0.60;0.60;;;;;;;21.53;52.01;100428.56;5055252;28;20190;-77
2023/06/13 09:24:35;;;;;;;4.17;0.97;;;;;;;21.37;52.05;100412.94;5055256;28;20179;-77
2023/06/13 09:27:04;;;;;;;0.00;0.00;;;;;;;21.35;52.86;100414.53;5055109;28;20245;-77
2023/06/13 09:29:33;;;;;;;0.97;0.87;;;;;;;21.54;51.69;100407.91;5055411;28;20204;-77
2023/06/13 09:31:59;;;;;;;0.43;0.43;;;;;;;21.69;50.93;100409.59;5055166;28;20186;-77
2023/06/13 09:34:28;;;;;;;1.07;1.07;;;;;;;21.66;50.58;100416.72;5054884;28;20203;-76
2023/06/13 09:36:56;;;;;;;0.30;0.17;;;;;;;21.83;50.87;100417.22;5056019;28;20555;-77
2023/06/13 09:39:22;;;;;;;7.07;0.83;;;;;;;22.15;50.27;100415.47;5046926;28;20297;-77
2023/06/13 09:41:53;;;;;;;0.00;0.00;;;;;;;22.13;50.03;100403.09;5055391;28;20187;-76
2023/06/13 09:44:18;;;;;;;0.70;0.70;;;;;;;22.39;50.12;100402.81;5053231;28;20293;-77
2023/06/13 09:46:43;;;;;;;0.10;0.10;;;;;;;22.48;48.61;100388.53;5054604;28;20178;-76
2023/06/13 09:49:09;;;;;;;1.83;1.73;;;;;;;22.53;48.74;100388.94;5044536;28;20187;-77
2023/06/13 09:51:35;;;;;;;0.53;0.53;;;;;;;22.60;49.86;100390.16;5054928;28;20221;-77
2023/06/13 09:54:00;;;;;;;0.20;0.20;;;;;;;22.74;46.84;100373.47;5055600;28;20244;-77
2023/06/13 09:56:26;;;;;;;0.00;0.00;;;;;;;22.81;47.48;100379.03;5054687;28;20211;-76
2023/06/13 09:58:51;;;;;;;0.00;0.00;;;;;;;22.87;47.69;100380.28;5054470;28;20602;-77
2023/06/13 10:01:18;;;;;;;1.03;0.80;;;;;;;22.89;47.80;100375.13;5054363;28;20184;-77
2023/06/13 10:03:44;;;;;;;0.73;0.73;;;;;;;22.96;47.10;100369.53;5053572;28;20234;-77
2023/06/13 10:06:10;;;;;;;0.83;0.83;;;;;;;22.91;48.54;100378.31;5055399;28;20187;-77
2023/06/13 10:08:36;;;;;;;0.20;0.20;;;;;;;23.23;48.13;100381.09;5053817;28;20183;-77
2023/06/13 10:11:23;;;;;;;0.20;0.20;;;;;;;23.08;46.69;100366.34;5055069;28;20721;-76
2023/06/13 10:14:09;;;;;;;0.93;0.93;;;;;;;23.16;47.75;100369.94;5049582;28;20218;-78
2023/06/13 10:16:38;;;;;;;5.63;1.27;;;;;;;23.10;47.28;100352.81;5042041;28;20189;-75
2023/06/13 10:19:05;;;;;;;0.37;0.37;;;;;;;23.27;46.16;100353.19;5055566;28;20238;-77
2023/06/13 10:21:33;;;;;;;0.00;0.00;;;;;;;23.52;46.19;100353.97;5054688;28;20191;-77
2023/06/13 10:23:59;;;;;;;0.53;0.53;;;;;;;23.90;45.61;100354.31;5056768;28;20615;-77
2023/06/13 10:26:44;;;;;;;0.30;0.30;;;;;;;23.94;43.64;100349.50;5052547;28;20218;-78
2023/06/13 10:29:42;;;;;;;0.63;0.50;;;;;;;24.15;43.64;100343.00;5038486;28;20182;-77
2023/06/13 10:32:15;;;;;;;1.07;0.53;;;;;;;23.95;43.79;100343.50;5048368;28;20274;-77
2023/06/13 10:35:05;;;;;;;2.40;1.20;;;;;;;23.66;43.16;100330.84;5047785;28;20543;-78
2023/06/13 10:37:53;;;;;;;0.83;0.83;;;;;;;23.81;42.34;100326.81;5052642;28;20232;-77
2023/06/13 10:40:55;;;;;;;4.47;2.27;;;;;;;23.69;42.58;100328.03;5049509;28;20553;-77
2023/06/13 10:43:49;;;;;;;0.77;0.50;;;;;;;24.06;42.56;100325.91;5052393;28;20618;-77
2023/06/13 10:46:15;;;;;;;0.87;0.87;;;;;;;24.07;42.24;100322.72;5054672;28;20183;-77
2023/06/13 10:48:51;;;;;;;0.97;0.97;;;;;;;24.19;42.28;100319.47;5046513;28;20281;-78
2023/06/13 10:51:28;;;;;;;0.50;0.50;;;;;;;24.06;39.93;100312.75;5053451;28;20730;-76
2023/06/13 10:54:03;;;;;;;0.00;0.00;;;;;;;23.98;40.98;100309.19;5054974;28;20273;-78
2023/06/13 10:56:31;;;;;;;0.50;0.50;;;;;;;24.35;39.85;100301.47;5051012;28;20185;-78
2023/06/13 10:59:13;;;;;;;0.30;0.30;;;;;;;24.56;39.32;100295.72;5049043;28;20214;-77
2023/06/13 11:01:41;;;;;;;0.37;0.37;;;;;;;24.72;38.83;100304.38;5054712;28;20179;-78
2023/06/13 11:04:17;;;;;;;0.27;0.27;;;;;;;24.50;37.91;100291.78;5054106;28;20229;-77
2023/06/13 11:06:44;;;;;;;1.10;1.00;;;;;;;24.59;37.37;100280.91;5040673;28;20183;-78
2023/06/13 11:09:21;;;;;;;1.43;0.60;;;;;;;25.04;36.49;100278.19;5054591;28;20179;-76
2023/06/13 11:11:51;;;;;;;4.33;1.27;;;;;;;25.38;35.34;100278.25;5053900;28;20197;-78
2023/06/13 11:14:20;;;;;;;0.73;0.73;;;;;;;25.49;33.14;100256.53;5054882;28;20203;-77
2023/06/13 11:16:46;;;;;;;1.60;1.33;;;;;;;24.83;34.53;100251.19;5050832;28;20193;-78
2023/06/13 11:19:13;;;;;;;1.10;1.00;;;;;;;24.43;35.10;100261.09;5054814;28;20215;-78
2023/06/13 11:21:44;;;;;;;0.40;0.40;;;;;;;24.30;34.33;100249.59;5056362;28;20187;-77
2023/06/13 11:24:14;;;;;;;0.40;0.40;;;;;;;24.24;34.34;100249.22;5054670;28;20199;-77
2023/06/13 11:26:41;;;;;;;0.23;0.23;;;;;;;24.75;35.51;100252.47;5053965;28;20194;-78